createdAt,value
2023-03-12T00:02:01.811Z,99908.47
2023-03-12T00:04:28.863Z,99924.28
2023-03-12T00:06:55.357Z,99923.16
2023-03-12T00:09:21.867Z,99927.81
2023-03-12T00:11:48.339Z,99932.34
2023-03-12T00:14:15.189Z,99938.69
2023-03-12T00:16:43.016Z,99927.13
2023-03-12T00:19:12.280Z,99932.34
2023-03-12T00:21:39.028Z,99930.09
2023-03-12T00:24:06.678Z,99930.38
2023-03-12T00:26:33.158Z,99931.63
2023-03-12T00:28:59.818Z,99940.53
2023-03-12T00:31:29.023Z,99934.47
2023-03-12T00:33:57.016Z,99927.25
2023-03-12T00:36:25.338Z,99933.19
2023-03-12T00:38:52.353Z,99923.56
2023-03-12T00:41:19.088Z,99926.13
2023-03-12T00:43:45.621Z,99929.81
2023-03-12T00:46:12.655Z,99919.22
2023-03-12T00:48:39.562Z,99921.75
2023-03-12T00:51:07.673Z,99925.56
2023-03-12T00:53:34.230Z,99917.09
2023-03-12T00:56:00.802Z,99919.78
2023-03-12T00:58:27.311Z,99919.66
2023-03-12T01:00:54.012Z,99922.16
2023-03-12T01:03:20.680Z,99919.50
2023-03-12T01:05:47.188Z,99920.34
2023-03-12T01:08:15.033Z,99922.88
2023-03-12T01:10:42.836Z,99920.22
2023-03-12T01:13:09.358Z,99929.81
2023-03-12T01:15:35.855Z,99925.41
2023-03-12T01:18:02.807Z,99928.09
2023-03-12T01:20:29.336Z,99928.09
2023-03-12T01:22:55.853Z,99928.69
2023-03-12T01:25:23.719Z,99929.66
2023-03-12T01:27:50.332Z,99938.41
2023-03-12T01:30:17.056Z,99933.06
2023-03-12T01:32:43.681Z,99936.41
2023-03-12T01:35:10.489Z,99942.78
2023-03-12T01:37:37.003Z,99949.69
2023-03-12T01:40:03.968Z,99950.53
2023-03-12T01:42:31.776Z,99945.19
2023-03-12T01:45:00.756Z,99937.97
2023-03-12T01:47:29.145Z,99959.44
2023-03-12T01:49:56.084Z,99954.91
2023-03-12T01:52:27.335Z,99954.63
2023-03-12T01:54:58.485Z,99954.63
2023-03-12T01:57:30.321Z,99958.19
2023-03-12T02:00:02.231Z,99960.56
2023-03-12T02:02:29.097Z,99962.28
2023-03-12T02:05:06.276Z,99956.06
2023-03-12T02:07:34.438Z,99947.88
2023-03-12T02:10:01.957Z,99946.03
2023-03-12T02:12:28.500Z,99934.31
2023-03-12T02:14:55.027Z,99946.88
2023-03-12T02:17:23.130Z,99956.63
2023-03-12T02:19:57.860Z,99955.75
2023-03-12T02:22:24.822Z,99950.13
2023-03-12T02:24:56.682Z,99943.91
2023-03-12T02:27:24.804Z,99943.78
2023-03-12T02:29:51.395Z,99937.28
2023-03-12T02:32:23.174Z,99940.81
2023-03-12T02:34:49.738Z,99930.09
2023-03-12T02:37:16.517Z,99939.81
2023-03-12T02:39:49.959Z,99937.97
2023-03-12T02:42:16.499Z,99942.50
2023-03-12T02:44:44.334Z,99929.94
2023-03-12T02:47:10.812Z,99935.31
2023-03-12T02:49:37.284Z,99936.13
2023-03-12T02:52:04.554Z,99945.63
2023-03-12T02:54:31.222Z,99938.53
2023-03-12T02:56:58.184Z,99934.75
2023-03-12T02:59:25.177Z,99946.47
2023-03-12T03:01:54.367Z,99943.63
2023-03-12T03:04:21.232Z,99951.53
2023-03-12T03:06:47.789Z,99948.03
2023-03-12T03:09:15.117Z,99955.06
2023-03-12T03:11:41.738Z,99956.06
2023-03-12T03:14:08.761Z,99959.44
2023-03-12T03:16:35.315Z,99963.94
2023-03-12T03:19:03.182Z,99962.00
2023-03-12T03:21:30.243Z,99962.13
2023-03-12T03:23:56.878Z,99969.03
2023-03-12T03:26:24.451Z,99965.34
2023-03-12T03:28:51.540Z,99970.59
2023-03-12T03:31:18.600Z,99976.63
2023-03-12T03:33:45.317Z,99968.59
2023-03-12T03:36:14.076Z,99972.16
2023-03-12T03:38:41.116Z,99973.00
2023-03-12T03:41:08.061Z,99963.09
2023-03-12T03:43:34.566Z,99973.69
2023-03-12T03:46:03.042Z,99973.84
2023-03-12T03:48:29.689Z,99978.19
2023-03-12T03:50:59.826Z,99992.59
2023-03-12T03:53:27.633Z,99995.00
2023-03-12T03:55:54.213Z,99999.38
2023-03-12T03:58:20.898Z,100000.09
2023-03-12T04:00:47.404Z,100006.13
2023-03-12T04:03:14.289Z,100007.84
2023-03-12T04:05:41.222Z,100004.31
2023-03-12T04:08:08.017Z,100008.81
2023-03-12T04:10:37.416Z,100007.84
2023-03-12T04:13:04.274Z,100011.38
2023-03-12T04:15:30.944Z,100005.88
2023-03-12T04:17:57.689Z,100008.53
2023-03-12T04:20:24.423Z,100015.06
2023-03-12T04:22:50.927Z,100019.84
2023-03-12T04:25:17.749Z,100016.19
2023-03-12T04:27:45.716Z,100000.78
2023-03-12T04:30:12.988Z,100004.31
2023-03-12T04:32:39.597Z,100015.91
2023-03-12T04:35:06.417Z,100032.81
2023-03-12T04:37:33.505Z,100038.19
2023-03-12T04:40:01.084Z,100028.31
2023-03-12T04:42:27.607Z,100034.50
2023-03-12T04:44:55.798Z,100041.72
2023-03-12T04:47:22.327Z,100042.44
2023-03-12T04:49:48.882Z,100037.34
2023-03-12T04:52:15.356Z,100037.91
2023-03-12T04:54:41.890Z,100042.16
2023-03-12T04:57:08.452Z,100046.50
2023-03-12T04:59:35.380Z,100049.03
2023-03-12T05:02:03.196Z,100057.09
2023-03-12T05:04:31.879Z,100062.44
2023-03-12T05:06:59.731Z,100051.72
2023-03-12T05:09:26.275Z,100058.81
2023-03-12T05:11:52.877Z,100059.66
2023-03-12T05:14:19.524Z,100059.50
2023-03-12T05:16:46.142Z,100057.81
2023-03-12T05:19:14.091Z,100058.66
2023-03-12T05:21:41.224Z,100062.88
2023-03-12T05:24:08.214Z,100070.91
2023-03-12T05:26:35.056Z,100078.84
2023-03-12T05:29:02.364Z,100079.69
2023-03-12T05:31:29.148Z,100092.09
2023-03-12T05:33:55.686Z,100092.94
2023-03-12T05:36:23.503Z,100080.38
2023-03-12T05:38:50.624Z,100092.94
2023-03-12T05:41:20.716Z,100087.56
2023-03-12T05:43:47.874Z,100082.09
2023-03-12T05:46:14.903Z,100080.25
2023-03-12T05:48:41.747Z,100083.78
2023-03-12T05:51:08.336Z,100091.81
2023-03-12T05:53:36.138Z,100094.06
2023-03-12T05:56:03.942Z,100081.53
2023-03-12T05:58:30.918Z,100075.16
2023-03-12T06:00:57.596Z,100070.66
2023-03-12T06:03:24.244Z,100059.06
2023-03-12T06:05:51.042Z,100050.03
2023-03-12T06:08:17.539Z,100055.28
2023-03-12T06:10:45.366Z,100049.19
2023-03-12T06:13:11.854Z,100044.56
2023-03-12T06:15:38.374Z,100051.72
2023-03-12T06:18:04.896Z,100053.44
2023-03-12T06:20:31.512Z,100048.19
2023-03-12T06:22:58.065Z,100053.97
2023-03-12T06:25:24.638Z,100054.72
2023-03-12T06:27:52.407Z,100054.72
2023-03-12T06:30:19.007Z,100049.34
2023-03-12T06:32:45.560Z,100050.03
2023-03-12T06:35:12.161Z,100067.97
2023-03-12T06:37:38.652Z,100066.97
2023-03-12T06:40:06.101Z,100058.06
2023-03-12T06:42:32.569Z,100065.13
2023-03-12T06:45:00.367Z,100062.44
2023-03-12T06:47:26.911Z,100067.81
2023-03-12T06:49:53.644Z,100073.16
2023-03-12T06:52:20.202Z,100074.44
2023-03-12T06:54:46.726Z,100076.28
2023-03-12T06:57:13.432Z,100083.31
2023-03-12T06:59:40.570Z,100087.72
2023-03-12T07:02:10.321Z,100087.72
2023-03-12T07:04:37.082Z,100096.63
2023-03-12T07:07:03.691Z,100093.94
2023-03-12T07:09:30.448Z,100090.25
2023-03-12T07:11:56.955Z,100087.56
2023-03-12T07:14:23.471Z,100083.91
2023-03-12T07:16:49.990Z,100078.53
2023-03-12T07:19:18.343Z,100078.53
2023-03-12T07:21:44.827Z,100093.78
2023-03-12T07:24:11.468Z,100096.88
2023-03-12T07:26:37.938Z,100095.19
2023-03-12T07:29:04.865Z,100099.41
2023-03-12T07:31:31.482Z,100111.97
2023-03-12T07:33:58.155Z,100119.91
2023-03-12T07:36:26.443Z,100131.47
2023-03-12T07:38:53.177Z,100125.25
2023-03-12T07:41:19.701Z,100131.31
2023-03-12T07:43:47.243Z,100122.44
2023-03-12T07:46:14.133Z,100125.13
2023-03-12T07:48:44.014Z,100137.53
2023-03-12T07:51:11.068Z,100133.03
2023-03-12T07:53:38.931Z,100134.41
2023-03-12T07:56:06.706Z,100132.72
2023-03-12T07:58:33.355Z,100139.78
2023-03-12T08:00:59.952Z,100145.88
2023-03-12T08:03:26.613Z,100144.88
2023-03-12T08:05:57.996Z,100155.59
2023-03-12T08:08:24.938Z,100154.59
2023-03-12T08:10:53.341Z,100157.28
2023-03-12T08:13:20.386Z,100153.63
2023-03-12T08:15:46.969Z,100158.88
2023-03-12T08:18:13.509Z,100164.22
2023-03-12T08:20:40.005Z,100163.38
2023-03-12T08:23:06.544Z,100166.31
2023-03-12T08:25:33.072Z,100166.59
2023-03-12T08:28:01.034Z,100162.91
2023-03-12T08:30:30.071Z,100166.59
2023-03-12T08:32:56.968Z,100175.38
2023-03-12T08:35:23.912Z,100176.22
2023-03-12T08:37:50.445Z,100185.09
2023-03-12T08:40:17.264Z,100192.16
2023-03-12T08:42:44.623Z,100190.31
2023-03-12T08:45:13.527Z,100193.84
2023-03-12T08:47:40.045Z,100193.84
2023-03-12T08:50:07.975Z,100192.03
2023-03-12T08:52:34.516Z,100193.41
2023-03-12T08:55:01.092Z,100192.69
2023-03-12T08:57:28.159Z,100193.41
2023-03-12T08:59:54.707Z,100185.22
2023-03-12T09:02:22.571Z,100191.47
2023-03-12T09:04:49.429Z,100179.84
2023-03-12T09:07:16.288Z,100178.91
2023-03-12T09:09:42.912Z,100187.78
2023-03-12T09:12:09.774Z,100189.47
2023-03-12T09:15:02.613Z,100186.78
2023-03-12T09:17:24.234Z,100184.94
2023-03-12T09:19:50.771Z,100180.44
2023-03-12T09:22:17.277Z,100183.25
2023-03-12T09:24:43.778Z,100175.63
2023-03-12T09:27:10.360Z,100186.22
2023-03-12T09:29:46.545Z,100178.91
2023-03-12T09:32:20.070Z,100178.91
2023-03-12T09:34:47.968Z,100179.75
2023-03-12T09:37:14.468Z,100166.31
2023-03-12T09:39:41.087Z,100178.75
2023-03-12T09:42:18.906Z,100175.22
2023-03-12T09:44:47.188Z,100165.34
2023-03-12T09:47:23.690Z,100166.19
2023-03-12T09:49:55.637Z,100171.44
2023-03-12T09:52:25.670Z,100175.94
2023-03-12T09:54:58.733Z,100173.66
2023-03-12T09:57:27.665Z,100167.44
2023-03-12T09:59:54.195Z,100162.81
2023-03-12T10:02:44.490Z,100162.66
2023-03-12T10:05:17.154Z,100164.50
2023-03-12T10:07:50.043Z,100157.28
2023-03-12T10:10:27.588Z,100164.34
2023-03-12T10:13:14.066Z,100166.06
2023-03-12T10:15:49.855Z,100164.22
2023-03-12T10:18:28.011Z,100164.06
2023-03-12T10:21:16.047Z,100163.22
2023-03-12T10:23:56.795Z,100165.59
2023-03-12T10:26:25.197Z,100164.66
2023-03-12T10:28:57.351Z,100156.28
2023-03-12T10:31:27.721Z,100154.50
2023-03-12T10:33:56.879Z,100148.97
2023-03-12T10:36:28.442Z,100148.97
2023-03-12T10:38:55.139Z,100151.66
2023-03-12T10:41:24.494Z,100148.81
2023-03-12T10:43:51.406Z,100144.34
2023-03-12T10:46:37.951Z,100143.34
2023-03-12T10:49:24.362Z,100133.47
2023-03-12T10:51:57.422Z,100141.66
2023-03-12T10:54:29.501Z,100138.53
2023-03-12T10:56:56.625Z,100142.88
2023-03-12T10:59:28.114Z,100144.59
2023-03-12T11:01:54.857Z,100145.31
2023-03-12T11:04:24.545Z,100146.16
2023-03-12T11:07:07.493Z,100149.69
2023-03-12T11:09:34.028Z,100141.66
2023-03-12T11:12:00.592Z,100139.81
2023-03-12T11:14:29.508Z,100146.03
2023-03-12T11:16:57.169Z,100136.16
2023-03-12T11:19:29.648Z,100133.63
2023-03-12T11:21:58.501Z,100130.47
2023-03-12T11:24:26.358Z,100127.69
2023-03-12T11:26:57.009Z,100119.47
2023-03-12T11:29:27.684Z,100114.97
2023-03-12T11:32:02.316Z,100108.59
2023-03-12T11:34:32.685Z,100099.59
2023-03-12T11:37:07.519Z,100087.03
2023-03-12T11:39:47.389Z,100089.56
2023-03-12T11:42:32.284Z,100078.84
2023-03-12T11:45:07.512Z,100064.47
2023-03-12T11:47:49.058Z,100063.75
2023-03-12T11:50:26.774Z,100056.13
2023-03-12T11:53:10.457Z,100051.44
2023-03-12T11:55:54.784Z,100047.81
2023-03-12T11:58:32.747Z,100050.31
2023-03-12T12:01:09.409Z,100049.34
2023-03-12T12:03:48.796Z,100044.84
2023-03-12T12:06:27.612Z,100045.81
2023-03-12T12:09:07.612Z,100038.47
2023-03-12T12:11:46.583Z,100033.13
2023-03-12T12:14:24.796Z,100035.81
2023-03-12T12:17:03.204Z,100020.00
2023-03-12T12:19:42.598Z,100015.91
2023-03-12T12:22:27.509Z,100023.66
2023-03-12T12:25:17.822Z,100035.09
2023-03-12T12:27:59.604Z,100027.03
2023-03-12T12:30:47.522Z,100017.31
2023-03-12T12:33:30.658Z,100011.78
2023-03-12T12:35:57.508Z,100012.66
2023-03-12T12:38:29.838Z,100006.31
2023-03-12T12:41:03.568Z,99994.72
2023-03-12T12:43:36.604Z,99995.56
2023-03-12T12:46:06.650Z,99985.25
2023-03-12T12:48:36.628Z,99977.22
2023-03-12T12:51:08.300Z,99976.09
2023-03-12T12:53:43.949Z,99964.41
2023-03-12T12:56:19.739Z,99960.72
2023-03-12T12:59:00.608Z,99962.56
2023-03-12T13:01:28.059Z,99961.72
2023-03-12T13:04:00.007Z,99960.72
2023-03-12T13:06:28.178Z,99960.72
2023-03-12T13:09:12.326Z,99966.75
2023-03-12T13:11:42.952Z,99956.91
2023-03-12T13:14:20.278Z,99966.75
2023-03-12T13:16:47.508Z,99957.31
2023-03-12T13:19:25.596Z,99963.69
2023-03-12T13:22:03.923Z,99956.34
2023-03-12T13:24:34.624Z,99958.03
2023-03-12T13:27:12.096Z,99955.06
2023-03-12T13:29:41.997Z,99960.44
2023-03-12T13:32:30.612Z,99949.56
2023-03-12T13:34:57.854Z,99932.63
2023-03-12T13:37:39.464Z,99938.97
2023-03-12T13:40:35.061Z,99920.88
2023-03-12T13:43:06.087Z,99926.41
2023-03-12T13:45:41.639Z,99905.53
2023-03-12T13:48:15.682Z,99902.72
2023-03-12T13:50:50.619Z,99895.50
2023-03-12T13:53:22.581Z,99893.66
2023-03-12T13:56:01.238Z,99893.50
2023-03-12T13:58:28.513Z,99894.22
2023-03-12T14:01:01.852Z,99890.72
2023-03-12T14:03:31.048Z,99883.50
2023-03-12T14:06:00.326Z,99868.25
2023-03-12T14:08:42.458Z,99875.31
2023-03-12T14:11:30.022Z,99876.00
2023-03-12T14:14:16.989Z,99866.69
2023-03-12T14:16:47.483Z,99869.53
2023-03-12T14:19:15.480Z,99878.25
2023-03-12T14:21:45.067Z,99873.78
2023-03-12T14:24:22.981Z,99877.97
2023-03-12T14:26:50.192Z,99869.09
2023-03-12T14:29:23.269Z,99870.78
2023-03-12T14:31:54.625Z,99867.25
2023-03-12T14:34:24.156Z,99865.56
2023-03-12T14:36:58.574Z,99853.00
2023-03-12T14:39:30.333Z,99847.50
2023-03-12T14:42:00.324Z,99848.47
2023-03-12T14:44:28.391Z,99842.56
2023-03-12T14:46:59.687Z,99842.56
2023-03-12T14:49:26.385Z,99835.22
2023-03-12T14:51:53.682Z,99824.50
2023-03-12T14:54:22.503Z,99811.94
2023-03-12T14:56:49.710Z,99811.94
2023-03-12T14:59:26.904Z,99807.28
2023-03-12T15:02:00.979Z,99802.06
2023-03-12T15:04:30.254Z,99797.41
2023-03-12T15:06:58.202Z,99782.16
2023-03-12T15:09:26.857Z,99774.09
2023-03-12T15:11:56.026Z,99774.94
2023-03-12T15:14:24.690Z,99766.50
2023-03-12T15:16:51.975Z,99760.28
2023-03-12T15:19:23.104Z,99742.38
2023-03-12T15:21:50.646Z,99742.22
2023-03-12T15:24:17.397Z,99739.53
2023-03-12T15:26:43.939Z,99742.91
2023-03-12T15:29:22.907Z,99731.19
2023-03-12T15:31:49.832Z,99728.50
2023-03-12T15:34:31.791Z,99720.47
2023-03-12T15:36:59.152Z,99723.16
2023-03-12T15:39:28.814Z,99715.94
2023-03-12T15:41:59.914Z,99714.94
2023-03-12T15:44:29.345Z,99718.06
2023-03-12T15:47:02.694Z,99715.56
2023-03-12T15:49:32.953Z,99725.13
2023-03-12T15:52:02.897Z,99702.69
2023-03-12T15:54:30.544Z,99692.81
2023-03-12T15:57:17.916Z,99687.28
2023-03-12T15:59:44.564Z,99684.75
2023-03-12T16:02:11.780Z,99690.13
2023-03-12T16:04:39.657Z,99681.91
2023-03-12T16:07:12.157Z,99688.97
2023-03-12T16:09:38.778Z,99685.31
2023-03-12T16:12:05.504Z,99674.59
2023-03-12T16:14:33.503Z,99672.47
2023-03-12T16:17:00.282Z,99659.06
2023-03-12T16:19:30.256Z,99668.66
2023-03-12T16:21:58.155Z,99658.78
2023-03-12T16:24:24.660Z,99655.09
2023-03-12T16:26:54.757Z,99654.09
2023-03-12T16:29:22.040Z,99642.41
2023-03-12T16:31:51.637Z,99642.41
2023-03-12T16:34:18.165Z,99646.03
2023-03-12T16:36:44.737Z,99642.41
2023-03-12T16:39:12.605Z,99650.28
2023-03-12T16:41:39.260Z,99648.44
2023-03-12T16:44:07.403Z,99643.22
2023-03-12T16:46:34.713Z,99647.34
2023-03-12T16:49:01.744Z,99638.34
2023-03-12T16:51:28.316Z,99646.38
2023-03-12T16:54:07.402Z,99649.91
2023-03-12T16:56:37.452Z,99641.69
2023-03-12T16:59:07.227Z,99629.13
2023-03-12T17:01:33.918Z,99625.47
2023-03-12T17:04:00.644Z,99616.41
2023-03-12T17:06:27.571Z,99614.75
2023-03-12T17:08:54.502Z,99611.88
2023-03-12T17:11:23.897Z,99600.31
2023-03-12T17:13:55.516Z,99601.16
2023-03-12T17:16:22.085Z,99608.84
2023-03-12T17:18:48.655Z,99596.41
2023-03-12T17:21:16.922Z,99613.19
2023-03-12T17:23:43.767Z,99599.78
2023-03-12T17:26:10.254Z,99589.91
2023-03-12T17:28:36.968Z,99596.25
2023-03-12T17:31:05.565Z,99592.41
2023-03-12T17:33:32.150Z,99586.22
2023-03-12T17:35:59.967Z,99574.50
2023-03-12T17:38:26.921Z,99584.22
2023-03-12T17:40:53.678Z,99576.03
2023-03-12T17:43:20.306Z,99567.44
2023-03-12T17:45:46.878Z,99562.53
2023-03-12T17:48:15.287Z,99567.06
2023-03-12T17:50:42.373Z,99565.06
2023-03-12T17:53:09.064Z,99565.94
2023-03-12T17:55:36.409Z,99562.25
2023-03-12T17:58:03.543Z,99560.22
2023-03-12T18:00:30.380Z,99563.91
2023-03-12T18:02:56.987Z,99554.88
2023-03-12T18:05:25.130Z,99549.50
2023-03-12T18:07:51.731Z,99544.13
2023-03-12T18:10:18.537Z,99545.00
2023-03-12T18:12:45.080Z,99546.81
2023-03-12T18:15:14.034Z,99550.13
2023-03-12T18:17:41.322Z,99556.16
2023-03-12T18:20:09.027Z,99553.34
2023-03-12T18:22:38.363Z,99567.44
2023-03-12T18:25:07.099Z,99540.78
2023-03-12T18:27:33.663Z,99540.78
2023-03-12T18:30:00.163Z,99546.97
2023-03-12T18:32:26.794Z,99543.31
2023-03-12T18:34:53.347Z,99547.81
2023-03-12T18:37:20.264Z,99540.63
2023-03-12T18:39:48.327Z,99533.41
2023-03-12T18:42:14.867Z,99534.88
2023-03-12T18:44:41.505Z,99532.19
2023-03-12T18:47:08.033Z,99532.03
2023-03-12T18:49:34.519Z,99526.53
2023-03-12T18:52:01.005Z,99527.50
2023-03-12T18:54:27.610Z,99532.88
2023-03-12T18:56:55.505Z,99524.81
2023-03-12T18:59:21.973Z,99523.84
2023-03-12T19:01:48.524Z,99523.84
2023-03-12T19:04:17.440Z,99512.13
2023-03-12T19:06:50.850Z,99514.81
2023-03-12T19:09:18.830Z,99505.75
2023-03-12T19:11:46.411Z,99502.84
2023-03-12T19:14:14.259Z,99497.47
2023-03-12T19:16:40.929Z,99497.34
2023-03-12T19:19:07.532Z,99495.50
2023-03-12T19:21:34.012Z,99499.19
2023-03-12T19:24:00.545Z,99507.22
2023-03-12T19:26:27.046Z,99501.56
2023-03-12T19:28:53.632Z,99505.91
2023-03-12T19:31:21.540Z,99507.75
2023-03-12T19:33:48.141Z,99504.25
2023-03-12T19:36:14.654Z,99509.44
2023-03-12T19:38:41.241Z,99508.44
2023-03-12T19:41:08.182Z,99509.06
2023-03-12T19:43:35.232Z,99507.53
2023-03-12T19:46:01.829Z,99512.59
2023-03-12T19:48:30.001Z,99504.53
2023-03-12T19:50:56.528Z,99501.69
2023-03-12T19:53:23.305Z,99508.75
2023-03-12T19:55:49.855Z,99502.53
2023-03-12T19:58:17.055Z,99501.56
2023-03-12T20:00:43.975Z,99505.91
2023-03-12T20:03:10.599Z,99499.72
2023-03-12T20:05:42.174Z,99495.19
2023-03-12T20:08:08.706Z,99499.56
2023-03-12T20:10:35.192Z,99503.00
2023-03-12T20:13:01.746Z,99496.81
2023-03-12T20:15:28.377Z,99497.34
2023-03-12T20:17:54.970Z,99500.03
2023-03-12T20:20:21.495Z,99496.34
2023-03-12T20:22:49.261Z,99500.69
2023-03-12T20:25:16.153Z,99502.53
2023-03-12T20:27:42.693Z,99492.66
2023-03-12T20:30:10.790Z,99491.69
2023-03-12T20:32:37.464Z,99492.50
2023-03-12T20:35:04.386Z,99486.16
2023-03-12T20:37:30.912Z,99493.34
2023-03-12T20:39:58.726Z,99483.09
2023-03-12T20:42:25.232Z,99478.03
2023-03-12T20:44:51.739Z,99484.94
2023-03-12T20:47:18.343Z,99478.56
2023-03-12T20:49:44.832Z,99476.72
2023-03-12T20:52:11.310Z,99485.47
2023-03-12T20:54:37.793Z,99480.09
2023-03-12T20:57:06.642Z,99480.09
2023-03-12T20:59:33.102Z,99480.09
2023-03-12T21:01:59.692Z,99478.25
2023-03-12T21:04:26.307Z,99483.63
2023-03-12T21:06:52.778Z,99487.16
2023-03-12T21:09:21.331Z,99475.06
2023-03-12T21:11:47.890Z,99474.34
2023-03-12T21:14:15.810Z,99471.53
2023-03-12T21:16:42.335Z,99466.00
2023-03-12T21:19:09.020Z,99460.63
2023-03-12T21:21:35.512Z,99461.34
2023-03-12T21:24:01.998Z,99460.34
2023-03-12T21:26:28.501Z,99462.19
2023-03-12T21:28:54.972Z,99457.66
2023-03-12T21:31:22.940Z,99470.22
2023-03-12T21:33:49.509Z,99464.03
2023-03-12T21:36:16.278Z,99453.13
2023-03-12T21:38:42.881Z,99456.94
2023-03-12T21:41:11.067Z,99458.44
2023-03-12T21:43:37.970Z,99455.56
2023-03-12T21:46:05.033Z,99458.97
2023-03-12T21:48:33.110Z,99460.63
2023-03-12T21:51:03.831Z,99467.69
2023-03-12T21:53:30.461Z,99455.97
2023-03-12T21:55:58.885Z,99448.91
2023-03-12T21:58:26.582Z,99450.75
2023-03-12T22:01:01.447Z,99461.47
2023-03-12T22:03:28.026Z,99460.34
2023-03-12T22:05:55.828Z,99467.38
2023-03-12T22:08:22.370Z,99455.81
2023-03-12T22:10:48.956Z,99455.97
2023-03-12T22:13:15.473Z,99466.16
2023-03-12T22:15:41.986Z,99441.16
2023-03-12T22:18:08.585Z,99465.16
2023-03-12T22:20:35.093Z,99440.84
2023-03-12T22:23:03.057Z,99424.78
2023-03-12T22:25:30.149Z,99431.84
2023-03-12T22:27:56.662Z,99411.22
2023-03-12T22:30:23.168Z,99403.19
2023-03-12T22:32:49.698Z,99404.03
2023-03-12T22:35:16.386Z,99408.38
2023-03-12T22:37:44.479Z,99399.50
2023-03-12T22:40:13.817Z,99392.28
2023-03-12T22:42:40.337Z,99393.59
2023-03-12T22:45:08.012Z,99387.53
2023-03-12T22:47:34.588Z,99395.44
2023-03-12T22:50:01.079Z,99389.91
2023-03-12T22:52:27.619Z,99383.56
2023-03-12T22:54:54.291Z,99359.44
2023-03-12T22:57:22.102Z,99356.75
2023-03-12T22:59:48.677Z,99350.38
2023-03-12T23:02:15.213Z,99339.66
2023-03-12T23:04:41.884Z,99334.28
2023-03-12T23:07:14.808Z,99318.88
2023-03-12T23:09:43.414Z,99326.91
2023-03-12T23:12:09.999Z,99321.56
2023-03-12T23:14:37.750Z,99317.19
2023-03-12T23:17:04.345Z,99330.25
2023-03-12T23:19:32.432Z,99326.56
2023-03-12T23:21:59.254Z,99312.16
2023-03-12T23:24:25.764Z,99316.53
2023-03-12T23:26:52.411Z,99297.75
2023-03-12T23:29:19.011Z,99277.16
2023-03-12T23:31:46.899Z,99276.97
2023-03-12T23:34:13.456Z,99282.34
2023-03-12T23:36:40.061Z,99283.03
2023-03-12T23:39:06.613Z,99294.59
2023-03-12T23:41:33.121Z,99279.50
2023-03-12T23:44:00.449Z,99277.66
2023-03-12T23:46:27.671Z,99271.59
2023-03-12T23:48:55.634Z,99267.56
2023-03-12T23:51:24.009Z,99280.81
2023-03-12T23:53:52.206Z,99288.72
2023-03-12T23:56:20.972Z,99299.44
2023-03-12T23:58:48.684Z,99288.72
